createdAt,value
2023-11-02T00:00:01.130Z,99010.16
2023-11-02T00:02:31.064Z,99014.47
2023-11-02T00:04:59.750Z,99011.81
2023-11-02T00:07:32.228Z,99016.63
2023-11-02T00:10:02.285Z,99019.94
2023-11-02T00:12:32.424Z,99026.84
2023-11-02T00:15:03.035Z,99030.00
2023-11-02T00:17:51.693Z,99033.13
2023-11-02T00:20:40.795Z,99020.22
2023-11-02T00:23:10.673Z,99016.06
2023-11-02T00:25:59.394Z,99006.97
2023-11-02T00:28:26.952Z,98999.22
2023-11-02T00:30:55.751Z,98989.41
2023-11-02T00:33:24.944Z,98994.53
2023-11-02T00:35:54.809Z,98992.88
2023-11-02T00:38:25.520Z,99001.47
2023-11-02T00:40:54.266Z,98993.53
2023-11-02T00:43:23.683Z,98990.09
2023-11-02T00:45:53.233Z,98996.84
2023-11-02T00:48:24.237Z,98998.47
2023-11-02T00:51:22.624Z,98991.53
2023-11-02T00:53:54.767Z,98984.63
2023-11-02T00:56:23.580Z,98969.09
2023-11-02T00:58:55.864Z,98975.03
2023-11-02T01:01:25.789Z,98974.38
2023-11-02T01:03:56.959Z,98968.44
2023-11-02T01:06:30.088Z,98966.00
2023-11-02T01:09:01.845Z,98960.53
2023-11-02T01:11:32.840Z,98968.44
2023-11-02T01:14:08.898Z,98963.16
2023-11-02T01:16:37.489Z,98942.75
2023-11-02T01:19:30.135Z,98953.94
2023-11-02T01:21:58.730Z,98957.41
2023-11-02T01:24:33.835Z,98940.91
2023-11-02T01:27:02.946Z,98946.00
2023-11-02T01:29:33.500Z,98940.91
2023-11-02T01:32:04.754Z,98951.63
2023-11-02T01:34:34.651Z,98955.97
2023-11-02T01:37:03.332Z,98945.59
2023-11-02T01:40:04.983Z,98941.94
2023-11-02T01:42:45.095Z,98941.44
2023-11-02T01:45:25.589Z,98935.69
2023-11-02T01:48:07.131Z,98931.41
2023-11-02T01:50:37.086Z,98938.34
2023-11-02T01:53:30.439Z,98928.28
2023-11-02T01:56:09.779Z,98927.63
2023-11-02T01:58:54.232Z,98923.88
2023-11-02T02:01:33.251Z,98907.38
2023-11-02T02:04:10.223Z,98906.19
2023-11-02T02:06:49.263Z,98901.91
2023-11-02T02:09:43.135Z,98903.09
2023-11-02T02:12:19.035Z,98902.25
2023-11-02T02:15:02.367Z,98902.56
2023-11-02T02:17:40.345Z,98900.44
2023-11-02T02:20:10.876Z,98887.22
2023-11-02T02:22:45.153Z,98892.84
2023-11-02T02:25:25.589Z,98892.38
2023-11-02T02:28:19.928Z,98880.50
2023-11-02T02:31:10.378Z,98886.63
2023-11-02T02:33:54.118Z,98886.78
2023-11-02T02:36:34.003Z,98888.91
2023-11-02T02:39:07.371Z,98880.53
2023-11-02T02:41:41.251Z,98880.56
2023-11-02T02:44:11.518Z,98873.34
2023-11-02T02:46:41.409Z,98862.69
2023-11-02T02:49:10.072Z,98860.72
2023-11-02T02:51:46.987Z,98847.41
2023-11-02T02:54:17.015Z,98846.41
2023-11-02T02:56:49.516Z,98839.00
2023-11-02T02:59:20.240Z,98826.34
2023-11-02T03:01:49.953Z,98834.69
2023-11-02T03:04:22.113Z,98828.28
2023-11-02T03:06:55.365Z,98824.97
2023-11-02T03:09:26.245Z,98811.66
2023-11-02T03:11:58.103Z,98814.47
2023-11-02T03:14:27.894Z,98817.59
2023-11-02T03:17:07.627Z,98781.19
2023-11-02T03:19:47.289Z,98821.53
2023-11-02T03:22:18.885Z,98822.69
2023-11-02T03:25:04.569Z,98821.38
2023-11-02T03:27:52.676Z,98814.91
2023-11-02T03:30:29.625Z,98812.25
2023-11-02T03:33:09.352Z,98812.56
2023-11-02T03:35:45.419Z,98809.81
2023-11-02T03:38:26.024Z,98814.53
2023-11-02T03:41:06.249Z,98807.13
2023-11-02T03:43:44.042Z,98779.63
2023-11-02T03:46:30.067Z,98801.53
2023-11-02T03:49:12.360Z,98796.13
2023-11-02T03:51:51.685Z,98782.50
2023-11-02T03:54:41.253Z,98786.78
2023-11-02T03:57:18.676Z,98786.47
2023-11-02T03:59:59.313Z,98793.84
2023-11-02T04:02:32.799Z,98795.34
2023-11-02T04:05:15.443Z,98786.91
2023-11-02T04:07:59.584Z,98775.91
2023-11-02T04:10:32.986Z,98777.84
2023-11-02T04:13:15.650Z,98769.28
2023-11-02T04:15:44.975Z,98772.91
2023-11-02T04:18:13.579Z,98768.63
2023-11-02T04:20:42.099Z,98764.03
2023-11-02T04:23:12.442Z,98758.28
2023-11-02T04:25:42.475Z,98753.16
2023-11-02T04:28:10.892Z,98736.56
2023-11-02T04:30:39.409Z,98750.84
2023-11-02T04:33:09.542Z,98749.22
2023-11-02T04:35:38.305Z,98741.97
2023-11-02T04:38:07.767Z,98739.97
2023-11-02T04:40:36.593Z,98728.44
2023-11-02T04:43:06.488Z,98720.53
2023-11-02T04:45:38.411Z,98719.72
2023-11-02T04:48:09.597Z,98708.34
2023-11-02T04:50:38.115Z,98716.91
2023-11-02T04:53:08.247Z,98702.72
2023-11-02T04:55:37.581Z,98700.28
2023-11-02T04:58:07.449Z,98702.56
2023-11-02T05:00:35.938Z,98705.34
2023-11-02T05:03:05.802Z,98703.06
2023-11-02T05:05:34.950Z,98694.84
2023-11-02T05:08:04.250Z,98699.44
2023-11-02T05:10:32.940Z,98693.16
2023-11-02T05:13:01.397Z,98687.09
2023-11-02T05:15:31.502Z,98685.91
2023-11-02T05:18:00.089Z,98686.44
2023-11-02T05:20:29.501Z,98687.59
2023-11-02T05:22:57.977Z,98679.53
2023-11-02T05:25:26.432Z,98668.97
2023-11-02T05:27:54.868Z,98659.91
2023-11-02T05:30:23.847Z,98656.63
2023-11-02T05:32:53.715Z,98658.78
2023-11-02T05:35:22.190Z,98661.88
2023-11-02T05:37:50.626Z,98659.56
2023-11-02T05:40:19.088Z,98657.59
2023-11-02T05:42:47.486Z,98652.31
2023-11-02T05:45:16.393Z,98644.59
2023-11-02T05:47:44.879Z,98649.38
2023-11-02T05:50:15.072Z,98638.81
2023-11-02T05:52:43.512Z,98650.81
2023-11-02T05:55:11.940Z,98650.00
2023-11-02T05:57:40.385Z,98646.00
2023-11-02T06:00:12.124Z,98637.78
2023-11-02T06:02:40.821Z,98637.16
2023-11-02T06:05:10.008Z,98645.34
2023-11-02T06:07:39.916Z,98645.16
2023-11-02T06:10:09.298Z,98646.31
2023-11-02T06:12:37.784Z,98649.59
2023-11-02T06:15:07.429Z,98643.13
2023-11-02T06:17:36.189Z,98643.63
2023-11-02T06:20:07.355Z,98631.09
2023-11-02T06:22:37.223Z,98625.31
2023-11-02T06:25:08.619Z,98620.94
2023-11-02T06:27:39.002Z,98607.16
2023-11-02T06:30:08.923Z,98616.16
2023-11-02T06:32:37.325Z,98621.09
2023-11-02T06:35:06.623Z,98607.56
2023-11-02T06:37:35.144Z,98607.06
2023-11-02T06:40:04.280Z,98603.88
2023-11-02T06:42:34.371Z,98599.09
2023-11-02T06:45:03.053Z,98587.00
2023-11-02T06:47:31.578Z,98561.63
2023-11-02T06:49:59.988Z,98559.56
2023-11-02T06:52:28.441Z,98547.66
2023-11-02T06:54:56.855Z,98540.50
2023-11-02T06:57:25.360Z,98543.38
2023-11-02T06:59:55.252Z,98543.38
2023-11-02T07:02:24.540Z,98523.66
2023-11-02T07:04:59.475Z,98528.50
2023-11-02T07:07:27.993Z,98531.03
2023-11-02T07:09:56.813Z,98521.03
2023-11-02T07:12:25.311Z,98515.00
2023-11-02T07:14:55.188Z,98519.84
2023-11-02T07:17:23.692Z,98525.22
2023-11-02T07:19:52.265Z,98514.72
2023-11-02T07:22:20.767Z,98524.78
2023-11-02T07:24:49.310Z,98521.56
2023-11-02T07:27:18.057Z,98515.91
2023-11-02T07:29:46.825Z,98501.78
2023-11-02T07:32:16.712Z,98501.03
2023-11-02T07:34:45.210Z,98510.97
2023-11-02T07:37:13.686Z,98503.09
2023-11-02T07:39:42.145Z,98490.19
2023-11-02T07:42:10.633Z,98497.00
2023-11-02T07:44:39.166Z,98485.28
2023-11-02T07:47:07.742Z,98467.13
2023-11-02T07:49:39.396Z,98488.28
2023-11-02T07:52:08.805Z,98492.44
2023-11-02T07:54:38.618Z,98484.34
2023-11-02T07:57:09.636Z,98479.13
2023-11-02T07:59:38.495Z,98472.47
2023-11-02T08:02:07.785Z,98477.81
2023-11-02T08:04:38.607Z,98477.28
2023-11-02T08:07:09.347Z,98466.09
2023-11-02T08:09:38.831Z,98465.19
2023-11-02T08:12:10.229Z,98472.56
2023-11-02T08:14:39.828Z,98458.97
2023-11-02T08:17:08.360Z,98459.63
2023-11-02T08:19:40.355Z,98460.50
2023-11-02T08:22:08.904Z,98451.16
2023-11-02T08:24:39.320Z,98448.56
2023-11-02T08:27:08.018Z,98435.09
2023-11-02T08:29:37.430Z,98427.56
2023-11-02T08:32:06.582Z,98425.34
2023-11-02T08:34:35.458Z,98423.91
2023-11-02T08:37:05.860Z,98430.03
2023-11-02T08:39:42.522Z,98412.06
2023-11-02T08:42:11.550Z,98404.72
2023-11-02T08:44:45.936Z,98407.63
2023-11-02T08:47:15.369Z,98414.13
2023-11-02T08:49:44.224Z,98401.88
2023-11-02T08:52:14.130Z,98382.66
2023-11-02T08:54:42.848Z,98386.09
2023-11-02T08:57:11.473Z,98391.19
2023-11-02T08:59:40.094Z,98381.78
2023-11-02T09:02:08.605Z,98385.25
2023-11-02T09:04:37.241Z,98386.88
2023-11-02T09:07:06.543Z,98386.03
2023-11-02T09:09:36.552Z,98390.94
2023-11-02T09:12:05.501Z,98396.25
2023-11-02T09:14:34.122Z,98375.78
2023-11-02T09:17:03.819Z,98389.38
2023-11-02T09:19:32.815Z,98390.22
2023-11-02T09:22:01.817Z,98385.50
2023-11-02T09:24:33.411Z,98379.16
2023-11-02T09:27:03.581Z,98377.09
2023-11-02T09:29:32.268Z,98366.38
2023-11-02T09:32:04.268Z,98347.75
2023-11-02T09:34:35.504Z,98354.44
2023-11-02T09:37:04.129Z,98355.25
2023-11-02T09:39:33.395Z,98342.56
2023-11-02T09:42:04.097Z,98342.13
2023-11-02T09:44:33.692Z,98343.75
2023-11-02T09:47:02.725Z,98347.44
2023-11-02T09:49:31.303Z,98332.66
2023-11-02T09:52:00.571Z,98328.31
2023-11-02T09:54:38.135Z,98318.22
2023-11-02T09:57:16.295Z,98318.56
2023-11-02T09:59:46.473Z,98311.94
2023-11-02T10:02:16.153Z,98309.81
2023-11-02T10:04:45.294Z,98317.53
2023-11-02T10:07:14.826Z,98313.16
2023-11-02T10:09:44.644Z,98299.78
2023-11-02T10:12:15.186Z,98294.81
2023-11-02T10:14:46.570Z,98278.63
2023-11-02T10:17:16.326Z,98285.19
2023-11-02T10:19:44.904Z,98282.22
2023-11-02T10:22:13.457Z,98282.78
2023-11-02T10:24:42.324Z,98270.66
2023-11-02T10:27:12.284Z,98271.16
2023-11-02T10:29:43.733Z,98252.66
2023-11-02T10:32:13.645Z,98240.94
2023-11-02T10:34:45.580Z,98246.63
2023-11-02T10:37:14.123Z,98239.00
2023-11-02T10:39:42.722Z,98233.22
2023-11-02T10:42:11.415Z,98228.47
2023-11-02T10:44:41.713Z,98232.97
2023-11-02T10:47:15.721Z,98215.00
2023-11-02T10:49:45.689Z,98215.00
2023-11-02T10:52:21.550Z,98234.97
2023-11-02T10:54:56.107Z,98231.97
2023-11-02T10:57:25.264Z,98225.16
2023-11-02T10:59:55.333Z,98206.63
2023-11-02T11:02:25.785Z,98202.44
2023-11-02T11:04:58.802Z,98195.25
2023-11-02T11:07:27.946Z,98202.00
2023-11-02T11:09:58.193Z,98210.56
2023-11-02T11:12:37.040Z,98198.16
2023-11-02T11:15:08.933Z,98198.50
2023-11-02T11:17:40.556Z,98189.22
2023-11-02T11:20:10.731Z,98185.28
2023-11-02T11:22:47.015Z,98176.47
2023-11-02T11:25:16.364Z,98171.59
2023-11-02T11:27:45.169Z,98168.81
2023-11-02T11:30:37.531Z,98162.31
2023-11-02T11:33:46.555Z,98158.00
2023-11-02T11:36:25.225Z,98150.59
2023-11-02T11:38:54.749Z,98152.09
2023-11-02T11:41:42.925Z,98137.38
2023-11-02T11:44:19.424Z,98124.50
2023-11-02T11:46:51.800Z,98118.81
2023-11-02T11:49:49.701Z,98126.00
2023-11-02T11:52:29.501Z,98113.13
2023-11-02T11:54:58.119Z,98124.06
2023-11-02T11:57:56.425Z,98115.47
2023-11-02T12:00:26.844Z,98110.59
2023-11-02T12:02:59.621Z,98111.06
2023-11-02T12:05:58.537Z,98113.75
2023-11-02T12:08:27.630Z,98108.00
2023-11-02T12:10:58.793Z,98105.00
2023-11-02T12:13:27.901Z,98086.06
2023-11-02T12:16:00.347Z,98090.84
2023-11-02T12:18:30.406Z,98076.91
2023-11-02T12:21:02.037Z,98081.78
2023-11-02T12:23:37.803Z,98077.03
2023-11-02T12:26:07.443Z,98066.69
2023-11-02T12:28:48.343Z,98080.41
2023-11-02T12:31:31.541Z,98073.31
2023-11-02T12:34:02.432Z,98080.41
2023-11-02T12:36:32.923Z,98087.78
2023-11-02T12:39:01.494Z,98085.56
2023-11-02T12:41:31.329Z,98089.81
2023-11-02T12:44:06.323Z,98086.28
2023-11-02T12:46:35.732Z,98087.09
2023-11-02T12:49:17.249Z,98079.81
2023-11-02T12:52:03.613Z,98084.31
2023-11-02T12:54:33.378Z,98074.69
2023-11-02T12:57:03.878Z,98065.72
2023-11-02T12:59:38.458Z,98046.69
2023-11-02T13:02:07.845Z,98046.69
2023-11-02T13:04:53.278Z,98054.34
2023-11-02T13:07:28.985Z,98046.69
2023-11-02T13:10:01.870Z,98050.53
2023-11-02T13:12:31.054Z,98052.34
2023-11-02T13:15:00.320Z,98052.19
2023-11-02T13:17:28.919Z,98048.06
2023-11-02T13:19:57.423Z,98047.31
2023-11-02T13:22:27.548Z,98040.09
2023-11-02T13:24:58.993Z,98040.81
2023-11-02T13:27:28.416Z,98035.06
2023-11-02T13:29:57.256Z,98023.84
2023-11-02T13:32:25.715Z,98023.28
2023-11-02T13:34:54.534Z,98026.13
2023-11-02T13:37:23.159Z,98021.59
2023-11-02T13:39:53.112Z,98017.88
2023-11-02T13:42:22.636Z,98016.50
2023-11-02T13:44:51.096Z,98004.84
2023-11-02T13:47:19.683Z,97997.47
2023-11-02T13:49:48.291Z,97989.94
2023-11-02T13:52:16.940Z,97982.28
2023-11-02T13:54:45.487Z,97975.97
2023-11-02T13:57:15.363Z,97977.50
2023-11-02T13:59:44.075Z,97978.78
2023-11-02T14:02:12.532Z,97965.41
2023-11-02T14:04:42.155Z,97946.59
2023-11-02T14:07:11.449Z,97938.19
2023-11-02T14:09:41.040Z,97930.41
2023-11-02T14:12:11.005Z,97913.66
2023-11-02T14:14:40.930Z,97888.78
2023-11-02T14:17:09.900Z,97877.91
2023-11-02T14:19:38.416Z,97875.81
2023-11-02T14:22:06.840Z,97877.84
2023-11-02T14:24:35.337Z,97878.31
2023-11-02T14:27:05.296Z,97876.59
2023-11-02T14:29:33.750Z,97879.66
2023-11-02T14:32:03.955Z,97878.31
2023-11-02T14:34:32.401Z,97874.00
2023-11-02T14:37:01.231Z,97873.19
2023-11-02T14:39:29.686Z,97872.50
2023-11-02T14:41:58.355Z,97890.63
2023-11-02T14:44:27.297Z,97883.66
2023-11-02T14:46:56.690Z,97888.19
2023-11-02T14:49:27.442Z,97880.09
2023-11-02T14:51:56.377Z,97877.47
2023-11-02T14:54:25.935Z,97877.47
2023-11-02T14:56:54.999Z,97885.94
2023-11-02T14:59:23.626Z,97880.63
2023-11-02T15:01:53.835Z,97877.63
2023-11-02T15:04:22.544Z,97867.66
2023-11-02T15:06:52.600Z,97865.56
2023-11-02T15:09:21.116Z,97852.47
2023-11-02T15:11:49.805Z,97836.97
2023-11-02T15:14:18.182Z,97844.97
2023-11-02T15:16:49.447Z,97828.56
2023-11-02T15:19:17.938Z,97827.63
2023-11-02T15:21:47.725Z,97815.69
2023-11-02T15:24:17.691Z,97830.06
2023-11-02T15:26:46.242Z,97831.59
2023-11-02T15:29:16.901Z,97843.97
2023-11-02T15:31:45.365Z,97844.34
2023-11-02T15:34:13.810Z,97837.38
2023-11-02T15:36:42.370Z,97842.94
2023-11-02T15:39:11.788Z,97837.88
2023-11-02T15:41:42.156Z,97824.84
2023-11-02T15:44:10.599Z,97828.09
2023-11-02T15:46:42.605Z,97833.09
2023-11-02T15:49:11.288Z,97808.53
2023-11-02T15:51:44.623Z,97796.25
2023-11-02T15:54:14.054Z,97799.50
2023-11-02T15:56:44.790Z,97806.44
2023-11-02T15:59:16.315Z,97806.66
2023-11-02T16:01:44.859Z,97798.81
2023-11-02T16:04:14.085Z,97801.69
2023-11-02T16:06:42.625Z,97790.72
2023-11-02T16:09:11.080Z,97785.13
2023-11-02T16:11:47.752Z,97782.72
2023-11-02T16:14:16.327Z,97775.19
2023-11-02T16:16:46.060Z,97782.72
2023-11-02T16:19:15.174Z,97772.28
2023-11-02T16:21:45.014Z,97790.25
2023-11-02T16:24:13.787Z,97778.91
2023-11-02T16:26:42.706Z,97765.31
2023-11-02T16:29:13.906Z,97773.31
2023-11-02T16:31:42.466Z,97771.22
2023-11-02T16:34:12.274Z,97766.47
2023-11-02T16:36:45.118Z,97753.59
2023-11-02T16:39:13.980Z,97750.72
2023-11-02T16:41:46.559Z,97751.78
2023-11-02T16:44:17.909Z,97747.25
2023-11-02T16:46:47.052Z,97731.97
2023-11-02T16:49:16.008Z,97743.19
2023-11-02T16:51:44.895Z,97736.81
2023-11-02T16:54:13.506Z,97729.31
2023-11-02T16:56:42.589Z,97720.63
2023-11-02T16:59:15.162Z,97723.97
2023-11-02T17:01:45.445Z,97720.75
2023-11-02T17:04:14.876Z,97723.19
2023-11-02T17:06:44.470Z,97725.75
2023-11-02T17:09:13.087Z,97719.84
2023-11-02T17:11:41.834Z,97711.59
2023-11-02T17:14:10.335Z,97706.16
2023-11-02T17:16:41.628Z,97706.16
2023-11-02T17:19:12.049Z,97699.78
2023-11-02T17:21:40.956Z,97702.25
2023-11-02T17:24:10.105Z,97692.38
2023-11-02T17:26:39.090Z,97693.41
2023-11-02T17:29:07.838Z,97693.88
2023-11-02T17:31:36.250Z,97691.81
2023-11-02T17:34:04.839Z,97685.31
2023-11-02T17:36:34.856Z,97658.00
2023-11-02T17:39:03.277Z,97675.34
2023-11-02T17:41:35.824Z,97665.16
2023-11-02T17:44:04.292Z,97667.59
2023-11-02T17:46:32.756Z,97666.31
2023-11-02T17:49:01.347Z,97651.63
2023-11-02T17:51:29.788Z,97654.50
2023-11-02T17:53:59.680Z,97652.78
2023-11-02T17:56:29.203Z,97659.84
2023-11-02T17:58:57.704Z,97660.31
2023-11-02T18:01:26.174Z,97655.31
2023-11-02T18:03:54.665Z,97653.72
2023-11-02T18:06:23.191Z,97664.84
2023-11-02T18:08:51.644Z,97658.13
2023-11-02T18:11:22.363Z,97661.59
2023-11-02T18:13:50.830Z,97648.50
2023-11-02T18:16:19.377Z,97654.09
2023-11-02T18:18:47.877Z,97649.22
2023-11-02T18:21:16.389Z,97646.88
2023-11-02T18:23:45.117Z,97645.84
2023-11-02T18:26:13.994Z,97648.03
2023-11-02T18:28:44.090Z,97644.66
2023-11-02T18:31:12.598Z,97639.09
2023-11-02T18:33:41.096Z,97630.22
2023-11-02T18:36:12.107Z,97647.66
2023-11-02T18:38:40.641Z,97651.94
2023-11-02T18:41:09.117Z,97661.22
2023-11-02T18:43:39.078Z,97655.66
2023-11-02T18:46:18.150Z,97652.28
2023-11-02T18:48:48.390Z,97655.66
2023-11-02T18:51:17.066Z,97649.28
2023-11-02T18:53:47.928Z,97656.47
2023-11-02T18:56:17.005Z,97663.75
2023-11-02T18:58:46.411Z,97660.50
2023-11-02T19:01:21.348Z,97654.59
2023-11-02T19:03:50.587Z,97645.00
2023-11-02T19:06:19.535Z,97635.81
2023-11-02T19:08:51.245Z,97636.16
2023-11-02T19:11:20.210Z,97641.00
2023-11-02T19:13:50.220Z,97634.63
2023-11-02T19:16:20.123Z,97636.50
2023-11-02T19:18:48.806Z,97642.03
2023-11-02T19:21:17.910Z,97638.13
2023-11-02T19:23:46.629Z,97644.72
2023-11-02T19:26:17.810Z,97643.66
2023-11-02T19:28:46.748Z,97643.09
2023-11-02T19:31:15.192Z,97643.19
2023-11-02T19:33:45.516Z,97647.94
2023-11-02T19:36:13.997Z,97652.47
2023-11-02T19:38:42.475Z,97651.66
2023-11-02T19:41:11.298Z,97637.75
2023-11-02T19:43:42.530Z,97650.50
2023-11-02T19:46:11.179Z,97647.28
2023-11-02T19:48:40.864Z,97647.84
2023-11-02T19:51:15.352Z,97646.72
2023-11-02T19:53:43.902Z,97650.78
2023-11-02T19:56:12.812Z,97647.53
2023-11-02T19:58:41.297Z,97641.84
2023-11-02T20:01:10.436Z,97643.25
2023-11-02T20:03:39.005Z,97631.28
2023-11-02T20:06:08.040Z,97619.97
2023-11-02T20:08:38.007Z,97618.44
2023-11-02T20:11:06.628Z,97620.31
2023-11-02T20:13:35.020Z,97614.72
2023-11-02T20:16:03.909Z,97608.84
2023-11-02T20:18:34.410Z,97606.75
2023-11-02T20:21:04.087Z,97600.47
2023-11-02T20:23:32.710Z,97593.03
2023-11-02T20:26:02.823Z,97587.69
2023-11-02T20:28:31.343Z,97584.00
2023-11-02T20:30:59.850Z,97574.47
2023-11-02T20:33:28.540Z,97567.44
2023-11-02T20:35:59.637Z,97568.66
2023-11-02T20:38:28.143Z,97567.53
2023-11-02T20:40:56.911Z,97552.00
2023-11-02T20:43:26.720Z,97544.81
2023-11-02T20:45:55.847Z,97533.00
2023-11-02T20:48:24.890Z,97536.22
2023-11-02T20:50:53.477Z,97535.06
2023-11-02T20:53:22.965Z,97529.16
2023-11-02T20:55:51.506Z,97537.16
2023-11-02T20:58:20.161Z,97524.09
2023-11-02T21:00:53.568Z,97541.22
2023-11-02T21:03:23.037Z,97549.91
2023-11-02T21:05:52.086Z,97523.28
2023-11-02T21:08:20.923Z,97535.06
2023-11-02T21:10:49.952Z,97536.00
2023-11-02T21:13:19.502Z,97540.28
2023-11-02T21:15:49.478Z,97538.19
2023-11-02T21:18:18.258Z,97535.13
2023-11-02T21:20:46.766Z,97527.47
2023-11-02T21:23:15.417Z,97518.97
2023-11-02T21:25:43.846Z,97518.34
2023-11-02T21:28:15.368Z,97515.19
2023-11-02T21:30:49.509Z,97534.25
2023-11-02T21:33:19.481Z,97529.97
2023-11-02T21:35:48.777Z,97530.91
2023-11-02T21:38:17.286Z,97523.34
2023-11-02T21:40:45.806Z,97518.75
2023-11-02T21:43:15.509Z,97529.34
2023-11-02T21:45:44.103Z,97534.41
2023-11-02T21:48:12.704Z,97532.97
2023-11-02T21:50:43.037Z,97535.06
2023-11-02T21:53:11.649Z,97536.34
2023-11-02T21:55:40.299Z,97533.09
2023-11-02T21:58:09.072Z,97530.34
2023-11-02T22:00:37.586Z,97525.97
2023-11-02T22:03:06.705Z,97524.34
2023-11-02T22:05:35.891Z,97521.03
2023-11-02T22:08:06.510Z,97521.59
2023-11-02T22:10:34.969Z,97527.50
2023-11-02T22:13:03.704Z,97529.50
2023-11-02T22:15:32.310Z,97520.00
2023-11-02T22:18:01.030Z,97511.44
2023-11-02T22:20:29.633Z,97505.53
2023-11-02T22:22:58.443Z,97502.09
2023-11-02T22:25:28.386Z,97499.91
2023-11-02T22:27:57.010Z,97502.66
2023-11-02T22:30:25.699Z,97515.13
2023-11-02T22:32:54.554Z,97499.50
2023-11-02T22:35:23.102Z,97498.03
2023-11-02T22:37:51.622Z,97508.75
2023-11-02T22:40:21.211Z,97505.31
2023-11-02T22:42:51.191Z,97506.19
2023-11-02T22:45:19.866Z,97504.50
2023-11-02T22:47:49.340Z,97509.34
2023-11-02T22:50:18.007Z,97497.63
2023-11-02T22:52:46.693Z,97500.56
2023-11-02T22:55:15.453Z,97492.47
2023-11-02T22:57:43.885Z,97494.31
2023-11-02T23:00:25.238Z,97489.00
2023-11-02T23:02:53.778Z,97490.59
2023-11-02T23:05:22.539Z,97492.69
2023-11-02T23:07:51.644Z,97489.00
2023-11-02T23:10:20.429Z,97464.38
2023-11-02T23:12:49.849Z,97468.31
2023-11-02T23:15:19.766Z,97446.69
2023-11-02T23:17:49.090Z,97461.13
2023-11-02T23:20:18.041Z,97467.50
2023-11-02T23:22:46.520Z,97455.59
2023-11-02T23:25:15.186Z,97450.75
2023-11-02T23:27:43.707Z,97439.84
2023-11-02T23:30:13.511Z,97431.38
2023-11-02T23:32:44.795Z,97414.91
2023-11-02T23:35:13.595Z,97388.63
2023-11-02T23:37:42.169Z,97334.88
2023-11-02T23:40:15.662Z,97338.66
2023-11-02T23:42:45.457Z,97340.84
2023-11-02T23:45:14.306Z,97346.16
2023-11-02T23:47:44.312Z,97387.97
2023-11-02T23:50:12.935Z,97399.91
2023-11-02T23:52:42.813Z,97412.97
2023-11-02T23:55:11.912Z,97421.28
2023-11-02T23:57:40.515Z,97444.28
